Time;durP1;ratioP1;P1;durP2;ratioP2;P2;SDS_P1;SDS_P2;PMS_P1;PMS_P2;Temp;Humidity;BMP_temperature;BMP_pressure;BME280_temperature;BME280_humidity;BME280_pressure;Samples;Min_cycle;Max_cycle;Signal;HPM_P1;HPM_P2
2021/03/05 00:02:13;;;;;;;22.20;11.40;;;;;;;;;;4999633;28;20753;-70
2021/03/05 00:04:40;;;;;;;17.00;10.03;;;;;;;;;;4998938;28;20260;-70
2021/03/05 00:07:07;;;;;;;16.67;9.40;;;;;;;;;;4999180;28;20288;-70
2021/03/05 00:09:34;;;;;;;20.03;10.83;;;;;;;;;;4998802;28;20323;-70
2021/03/05 00:12:01;;;;;;;17.57;10.03;;;;;;;;;;4998729;28;20240;-70
2021/03/05 00:14:28;;;;;;;20.77;10.13;;;;;;;;;;4998598;28;20671;-70
2021/03/05 00:16:55;;;;;;;18.93;10.27;;;;;;;;;;4998755;28;20237;-70
2021/03/05 00:19:24;;;;;;;19.47;11.47;;;;;;;;;;4998623;28;20611;-70
2021/03/05 00:21:51;;;;;;;20.83;10.20;;;;;;;;;;4998318;28;20297;-70
2021/03/05 00:24:18;;;;;;;18.00;10.00;;;;;;;;;;4998727;28;20315;-70
2021/03/05 00:26:44;;;;;;;18.37;10.47;;;;;;;;;;4998977;28;20310;-70
2021/03/05 00:29:11;;;;;;;19.57;10.00;;;;;;;;;;4998630;28;20342;-69
2021/03/05 00:31:39;;;;;;;18.57;10.23;;;;;;;;;;4998601;28;20700;-70
2021/03/05 00:34:06;;;;;;;18.13;10.17;;;;;;;;;;4998500;28;20621;-69
2021/03/05 00:36:34;;;;;;;13.47;9.20;;;;;;;;;;4998668;28;20236;-70
2021/03/05 00:39:01;;;;;;;17.00;10.90;;;;;;;;;;4998555;28;20659;-69
2021/03/05 00:41:29;;;;;;;14.47;10.60;;;;;;;;;;4998606;28;20209;-70
2021/03/05 00:43:56;;;;;;;18.87;10.13;;;;;;;;;;4998087;28;20300;-69
2021/03/05 00:46:23;;;;;;;18.27;9.70;;;;;;;;;;4998590;28;20233;-70
2021/03/05 00:48:50;;;;;;;18.80;9.70;;;;;;;;;;4998297;28;20672;-70
2021/03/05 00:51:17;;;;;;;20.10;10.27;;;;;;;;;;4998607;28;20215;-70
2021/03/05 00:53:45;;;;;;;18.47;10.17;;;;;;;;;;4998269;28;20274;-69
2021/03/05 00:56:12;;;;;;;21.33;10.30;;;;;;;;;;4998359;28;20268;-70
2021/03/05 00:58:39;;;;;;;21.13;10.03;;;;;;;;;;4998135;28;20244;-70
2021/03/05 01:01:06;;;;;;;18.83;10.60;;;;;;;;;;4998578;28;20212;-70
2021/03/05 01:03:34;;;;;;;18.90;9.83;;;;;;;;;;4998403;28;20293;-70
2021/03/05 01:06:14;;;;;;;15.23;9.90;;;;;;;;;;4998173;28;20290;-70
2021/03/05 01:08:41;;;;;;;22.10;11.37;;;;;;;;;;4998147;28;20245;-70
2021/03/05 01:11:09;;;;;;;27.03;11.23;;;;;;;;;;4998050;28;20620;-70
2021/03/05 01:13:36;;;;;;;15.97;10.50;;;;;;;;;;4998035;28;20236;-70
2021/03/05 01:16:03;;;;;;;21.40;11.27;;;;;;;;;;4998227;28;20315;-70
2021/03/05 01:18:30;;;;;;;21.67;11.80;;;;;;;;;;4998295;28;20609;-70
2021/03/05 01:20:57;;;;;;;22.70;11.10;;;;;;;;;;4998269;28;20205;-69
2021/03/05 01:23:24;;;;;;;25.03;12.27;;;;;;;;;;4998292;28;20268;-70
2021/03/05 01:25:51;;;;;;;26.43;11.13;;;;;;;;;;4998331;28;20225;-69
2021/03/05 01:28:19;;;;;;;21.43;10.73;;;;;;;;;;4997643;28;20684;-70
2021/03/05 01:30:46;;;;;;;22.37;11.17;;;;;;;;;;4998334;28;20213;-70
2021/03/05 01:33:13;;;;;;;18.63;11.23;;;;;;;;;;4998637;28;20212;-70
2021/03/05 01:35:41;;;;;;;18.73;10.33;;;;;;;;;;5001541;28;20366;-70
2021/03/05 01:38:08;;;;;;;17.67;10.27;;;;;;;;;;5002098;28;20219;-70
2021/03/05 01:40:37;;;;;;;23.37;10.90;;;;;;;;;;5001929;28;20271;-70
2021/03/05 01:43:04;;;;;;;19.90;11.10;;;;;;;;;;5001437;28;20275;-69
2021/03/05 01:45:32;;;;;;;23.23;10.57;;;;;;;;;;5001659;28;20252;-70
2021/03/05 01:48:01;;;;;;;19.20;9.93;;;;;;;;;;5001852;28;20291;-69
2021/03/05 01:50:30;;;;;;;20.67;11.10;;;;;;;;;;5001519;28;20212;-70
2021/03/05 01:52:58;;;;;;;23.03;10.13;;;;;;;;;;5001788;28;20295;-70
2021/03/05 01:55:25;;;;;;;16.77;10.30;;;;;;;;;;5001291;28;20315;-70
2021/03/05 01:57:52;;;;;;;17.03;10.67;;;;;;;;;;5001454;28;20291;-70
2021/03/05 02:00:19;;;;;;;23.10;11.00;;;;;;;;;;5001424;28;20267;-70
2021/03/05 02:02:48;;;;;;;18.43;10.53;;;;;;;;;;5001366;28;20643;-70
2021/03/05 02:05:15;;;;;;;22.47;11.33;;;;;;;;;;5001139;28;20703;-70
2021/03/05 02:07:44;;;;;;;18.07;10.60;;;;;;;;;;5001476;28;20687;-69
2021/03/05 02:10:11;;;;;;;20.60;10.40;;;;;;;;;;5001182;28;20673;-70
2021/03/05 02:12:38;;;;;;;20.80;10.87;;;;;;;;;;5001309;28;20247;-70
2021/03/05 02:15:06;;;;;;;18.70;10.67;;;;;;;;;;5000887;28;20239;-70
2021/03/05 02:17:38;;;;;;;16.13;10.40;;;;;;;;;;5001158;28;20263;-70
2021/03/05 02:20:08;;;;;;;21.00;10.57;;;;;;;;;;5001133;28;20579;-70
2021/03/05 02:22:42;;;;;;;21.47;11.03;;;;;;;;;;5000992;28;20241;-70
2021/03/05 02:25:27;;;;;;;18.27;10.70;;;;;;;;;;5001163;28;20320;-69
2021/03/05 02:28:19;;;;;;;16.40;11.00;;;;;;;;;;5000629;28;20646;-70
2021/03/05 02:31:03;;;;;;;20.47;10.23;;;;;;;;;;5001052;28;20241;-69
2021/03/05 02:33:34;;;;;;;18.37;10.47;;;;;;;;;;4997598;28;20312;-69
2021/03/05 02:36:03;;;;;;;20.63;10.70;;;;;;;;;;5000318;28;20225;-69
2021/03/05 02:38:30;;;;;;;16.77;10.73;;;;;;;;;;5000897;28;20273;-70
2021/03/05 02:40:58;;;;;;;21.10;10.77;;;;;;;;;;5000449;28;20311;-70
2021/03/05 02:43:28;;;;;;;18.97;10.33;;;;;;;;;;5000103;28;20201;-70
2021/03/05 02:45:57;;;;;;;19.27;11.10;;;;;;;;;;4999478;28;20275;-70
2021/03/05 02:48:27;;;;;;;20.07;10.47;;;;;;;;;;4992365;28;20208;-70
2021/03/05 02:50:58;;;;;;;21.07;10.87;;;;;;;;;;5000532;28;20209;-70
2021/03/05 02:53:27;;;;;;;17.83;10.67;;;;;;;;;;5000480;28;20209;-70
2021/03/05 02:55:56;;;;;;;15.57;10.50;;;;;;;;;;4999939;28;20279;-70
2021/03/05 02:58:24;;;;;;;20.40;11.03;;;;;;;;;;4999568;28;20288;-70
2021/03/05 03:00:52;;;;;;;22.37;10.67;;;;;;;;;;5000740;28;20295;-70
2021/03/05 03:03:20;;;;;;;22.27;11.47;;;;;;;;;;5000382;28;20221;-70
2021/03/05 03:05:50;;;;;;;18.60;10.83;;;;;;;;;;5000280;28;20225;-70
2021/03/05 03:08:18;;;;;;;17.47;10.60;;;;;;;;;;4999929;28;20296;-70
2021/03/05 03:10:46;;;;;;;22.37;11.67;;;;;;;;;;5000186;28;20244;-70
2021/03/05 03:13:13;;;;;;;20.30;10.83;;;;;;;;;;4999568;28;20271;-71
2021/03/05 03:15:41;;;;;;;22.97;11.33;;;;;;;;;;5000170;28;20288;-71
2021/03/05 03:18:11;;;;;;;22.07;11.13;;;;;;;;;;4999844;28;20252;-71
2021/03/05 03:20:39;;;;;;;18.60;10.93;;;;;;;;;;5000279;28;20213;-71
2021/03/05 03:23:07;;;;;;;19.87;10.50;;;;;;;;;;4999837;28;20213;-70
2021/03/05 03:25:35;;;;;;;20.07;11.20;;;;;;;;;;4999945;28;20308;-70
2021/03/05 03:28:02;;;;;;;17.80;11.40;;;;;;;;;;4999361;28;20668;-71
2021/03/05 03:30:29;;;;;;;18.73;10.10;;;;;;;;;;5000055;28;20244;-70
2021/03/05 03:32:56;;;;;;;18.63;11.67;;;;;;;;;;4999582;28;20719;-70
2021/03/05 03:35:24;;;;;;;22.07;11.37;;;;;;;;;;4999471;28;20751;-70
2021/03/05 03:38:09;;;;;;;18.57;11.23;;;;;;;;;;4999662;28;20216;-69
2021/03/05 03:40:37;;;;;;;24.00;12.00;;;;;;;;;;4999460;28;20217;-71
2021/03/05 03:43:05;;;;;;;20.00;10.90;;;;;;;;;;4999420;28;20259;-70
2021/03/05 03:45:33;;;;;;;18.67;11.90;;;;;;;;;;4999537;28;20257;-70
2021/03/05 03:48:01;;;;;;;25.63;11.63;;;;;;;;;;4999443;28;20658;-71
2021/03/05 03:50:29;;;;;;;23.33;11.17;;;;;;;;;;4999476;28;20243;-70
2021/03/05 03:52:58;;;;;;;21.87;11.97;;;;;;;;;;4999612;28;20241;-71
2021/03/05 03:55:25;;;;;;;18.53;11.50;;;;;;;;;;4998918;28;20316;-70
2021/03/05 03:57:54;;;;;;;20.73;12.37;;;;;;;;;;4999074;28;20665;-70
2021/03/05 04:00:21;;;;;;;16.77;10.73;;;;;;;;;;4999006;28;20251;-71
2021/03/05 04:02:50;;;;;;;18.37;10.43;;;;;;;;;;4999378;28;20247;-71
2021/03/05 04:05:18;;;;;;;20.00;10.70;;;;;;;;;;4999177;28;20239;-71
2021/03/05 04:07:46;;;;;;;23.23;10.70;;;;;;;;;;4999422;28;20263;-71
2021/03/05 04:10:15;;;;;;;20.83;11.77;;;;;;;;;;4998839;28;20260;-71
2021/03/05 04:12:42;;;;;;;22.30;11.17;;;;;;;;;;4998661;28;20263;-71
2021/03/05 04:15:11;;;;;;;21.33;11.07;;;;;;;;;;4998651;28;20268;-69
2021/03/05 04:17:38;;;;;;;18.47;11.13;;;;;;;;;;4998882;28;20231;-71
2021/03/05 04:20:06;;;;;;;18.07;11.37;;;;;;;;;;4999070;28;20213;-69
2021/03/05 04:22:34;;;;;;;17.43;10.53;;;;;;;;;;4998831;28;20241;-70
2021/03/05 04:25:01;;;;;;;24.87;11.33;;;;;;;;;;4998896;28;20228;-71
2021/03/05 04:27:28;;;;;;;14.27;10.07;;;;;;;;;;4998441;28;20229;-71
2021/03/05 04:29:56;;;;;;;18.90;11.00;;;;;;;;;;4998373;28;20291;-69
2021/03/05 04:32:24;;;;;;;14.73;9.80;;;;;;;;;;4998561;28;20251;-71
2021/03/05 04:34:52;;;;;;;20.23;11.20;;;;;;;;;;4998605;28;20227;-70
2021/03/05 04:37:19;;;;;;;21.17;11.40;;;;;;;;;;4998353;28;20264;-71
2021/03/05 04:39:46;;;;;;;19.33;11.03;;;;;;;;;;4998749;28;20244;-69
2021/03/05 04:42:13;;;;;;;19.37;10.83;;;;;;;;;;4998567;28;20212;-71
2021/03/05 04:44:40;;;;;;;17.77;11.23;;;;;;;;;;4998468;28;20264;-71
2021/03/05 04:47:07;;;;;;;19.80;10.87;;;;;;;;;;4998521;28;20232;-70
2021/03/05 04:49:35;;;;;;;21.90;12.40;;;;;;;;;;4998506;28;20657;-70
2021/03/05 04:52:02;;;;;;;19.47;10.77;;;;;;;;;;4998310;28;20235;-71
2021/03/05 04:54:30;;;;;;;25.83;10.67;;;;;;;;;;4998647;28;20229;-71
2021/03/05 04:56:57;;;;;;;23.77;10.83;;;;;;;;;;4998167;28;20295;-71
2021/03/05 04:59:24;;;;;;;19.03;11.27;;;;;;;;;;4998063;28;20291;-71
2021/03/05 05:01:51;;;;;;;20.53;10.60;;;;;;;;;;4998463;28;20209;-71
2021/03/05 05:04:19;;;;;;;22.03;10.90;;;;;;;;;;4998470;28;20228;-71
2021/03/05 05:06:47;;;;;;;17.30;10.80;;;;;;;;;;4998358;28;20243;-70
2021/03/05 05:09:17;;;;;;;23.27;12.23;;;;;;;;;;5002724;28;20240;-71
2021/03/05 05:11:45;;;;;;;19.03;10.23;;;;;;;;;;5004567;28;20213;-71
2021/03/05 05:14:12;;;;;;;18.07;10.50;;;;;;;;;;5004643;28;20213;-71
2021/03/05 05:16:39;;;;;;;21.03;9.97;;;;;;;;;;5004565;28;20237;-71
2021/03/05 05:19:06;;;;;;;18.40;11.00;;;;;;;;;;5004900;28;20262;-71
2021/03/05 05:21:33;;;;;;;21.67;10.20;;;;;;;;;;5004519;28;20672;-71
2021/03/05 05:24:01;;;;;;;18.83;11.80;;;;;;;;;;5004560;28;20676;-71
2021/03/05 05:26:28;;;;;;;22.47;12.20;;;;;;;;;;5004527;28;20665;-71
2021/03/05 05:28:55;;;;;;;18.73;10.30;;;;;;;;;;5004623;28;20244;-70
2021/03/05 05:31:22;;;;;;;22.10;12.00;;;;;;;;;;5004730;28;20219;-69
2021/03/05 05:33:51;;;;;;;19.60;11.70;;;;;;;;;;5004572;28;20669;-70
2021/03/05 05:36:18;;;;;;;24.47;12.40;;;;;;;;;;5004377;28;20316;-70
2021/03/05 05:38:45;;;;;;;20.67;12.03;;;;;;;;;;5004762;28;20204;-70
2021/03/05 05:41:14;;;;;;;19.57;11.00;;;;;;;;;;5004242;28;20247;-70
2021/03/05 05:43:41;;;;;;;16.63;10.80;;;;;;;;;;5004396;28;20295;-70
2021/03/05 05:46:09;;;;;;;21.80;10.93;;;;;;;;;;5004475;28;20312;-70
2021/03/05 05:48:39;;;;;;;17.57;10.70;;;;;;;;;;5004538;28;20213;-70
2021/03/05 05:51:10;;;;;;;17.70;11.33;;;;;;;;;;5004640;28;20209;-70
2021/03/05 05:53:40;;;;;;;18.07;11.03;;;;;;;;;;5004413;28;20270;-70
2021/03/05 05:56:07;;;;;;;19.23;10.57;;;;;;;;;;5004062;28;20674;-70
2021/03/05 05:58:35;;;;;;;22.40;11.70;;;;;;;;;;5004089;28;20236;-70
2021/03/05 06:01:02;;;;;;;19.73;11.13;;;;;;;;;;5004308;28;20263;-70
2021/03/05 06:03:29;;;;;;;22.27;11.50;;;;;;;;;;5004433;28;20212;-70
2021/03/05 06:05:57;;;;;;;22.77;10.77;;;;;;;;;;5004262;28;20288;-70
2021/03/05 06:08:24;;;;;;;18.43;11.03;;;;;;;;;;5004106;28;20240;-70
2021/03/05 06:10:52;;;;;;;19.60;10.53;;;;;;;;;;5004385;28;20240;-71
2021/03/05 06:13:20;;;;;;;17.23;10.87;;;;;;;;;;5003928;28;20240;-70
2021/03/05 06:16:01;;;;;;;16.73;10.20;;;;;;;;;;5003923;28;20220;-70
2021/03/05 06:18:30;;;;;;;14.40;9.00;;;;;;;;;;5003283;28;20213;-70
2021/03/05 06:20:58;;;;;;;21.80;10.27;;;;;;;;;;5001698;28;20259;-70
2021/03/05 06:23:25;;;;;;;18.13;11.23;;;;;;;;;;5001154;28;20213;-70
2021/03/05 06:25:58;;;;;;;17.00;9.50;;;;;;;;;;5000842;28;20232;-70
2021/03/05 06:28:26;;;;;;;16.17;9.97;;;;;;;;;;5000874;28;20232;-70
2021/03/05 06:30:53;;;;;;;16.77;10.10;;;;;;;;;;5000900;28;20259;-70
2021/03/05 06:33:27;;;;;;;17.60;9.93;;;;;;;;;;5000946;28;20208;-71
2021/03/05 06:35:55;;;;;;;18.17;11.07;;;;;;;;;;5000417;28;20260;-70
2021/03/05 06:38:39;;;;;;;17.20;10.20;;;;;;;;;;5000762;28;20597;-70
2021/03/05 06:41:19;;;;;;;16.07;9.70;;;;;;;;;;5000426;28;20208;-70
2021/03/05 06:43:47;;;;;;;15.43;10.27;;;;;;;;;;5000605;28;20295;-70
2021/03/05 06:46:27;;;;;;;17.40;10.37;;;;;;;;;;5000753;28;20704;-70
2021/03/05 06:48:55;;;;;;;17.47;9.20;;;;;;;;;;5000657;28;20235;-70
2021/03/05 06:51:23;;;;;;;16.43;9.23;;;;;;;;;;5000659;28;20259;-70
2021/03/05 06:54:01;;;;;;;17.87;10.37;;;;;;;;;;5000629;28;20219;-68
2021/03/05 06:56:28;;;;;;;17.27;10.07;;;;;;;;;;5000235;28;20635;-67
2021/03/05 06:59:04;;;;;;;17.87;10.70;;;;;;;;;;4998322;28;20212;-67
2021/03/05 07:01:31;;;;;;;13.43;9.37;;;;;;;;;;4997548;28;20615;-67
2021/03/05 07:04:05;;;;;;;23.30;11.17;;;;;;;;;;4998745;28;20207;-67
2021/03/05 07:06:33;;;;;;;13.77;10.00;;;;;;;;;;4999125;28;20284;-67
2021/03/05 07:09:01;;;;;;;21.50;10.40;;;;;;;;;;4998639;28;20655;-67
2021/03/05 07:11:32;;;;;;;24.97;11.87;;;;;;;;;;4998677;28;20303;-67
2021/03/05 07:14:00;;;;;;;17.97;10.30;;;;;;;;;;4998335;28;20217;-67
2021/03/05 07:16:37;;;;;;;18.20;9.60;;;;;;;;;;4998501;28;20263;-67
2021/03/05 07:19:04;;;;;;;20.10;11.10;;;;;;;;;;4996720;28;20258;-68
2021/03/05 07:21:34;;;;;;;14.90;10.33;;;;;;;;;;4998632;28;20298;-68
2021/03/05 07:24:02;;;;;;;19.47;10.13;;;;;;;;;;4995846;28;20256;-68
2021/03/05 07:26:31;;;;;;;21.97;10.33;;;;;;;;;;4999124;28;20724;-68
2021/03/05 07:28:58;;;;;;;15.93;10.63;;;;;;;;;;4999771;28;20232;-69
2021/03/05 07:31:26;;;;;;;18.03;11.70;;;;;;;;;;4997300;28;20213;-70
2021/03/05 07:33:56;;;;;;;23.47;11.47;;;;;;;;;;4998384;28;20201;-69
2021/03/05 07:36:24;;;;;;;17.57;10.27;;;;;;;;;;4999227;28;20221;-70
2021/03/05 07:38:54;;;;;;;19.20;10.77;;;;;;;;;;4999740;28;20288;-70
2021/03/05 07:41:23;;;;;;;21.43;11.00;;;;;;;;;;4999597;28;20284;-67
2021/03/05 07:43:51;;;;;;;20.43;11.07;;;;;;;;;;4999537;28;20220;-70
2021/03/05 07:46:19;;;;;;;17.07;10.97;;;;;;;;;;4999261;28;20680;-71
2021/03/05 07:48:47;;;;;;;18.20;10.97;;;;;;;;;;4999700;28;20217;-68
2021/03/05 07:51:14;;;;;;;20.17;12.17;;;;;;;;;;4999313;28;20205;-69
2021/03/05 07:53:49;;;;;;;21.23;11.83;;;;;;;;;;4999440;28;20291;-68
2021/03/05 07:56:30;;;;;;;18.30;11.13;;;;;;;;;;4999253;28;20282;-69
2021/03/05 07:58:59;;;;;;;18.43;11.43;;;;;;;;;;5006426;28;20259;-68
2021/03/05 08:01:41;;;;;;;19.87;11.53;;;;;;;;;;4999125;28;20220;-68
2021/03/05 08:04:08;;;;;;;19.93;11.67;;;;;;;;;;4998124;28;20212;-69
2021/03/05 08:06:35;;;;;;;16.87;11.43;;;;;;;;;;4999429;28;20232;-69
2021/03/05 08:09:09;;;;;;;21.97;12.27;;;;;;;;;;4998450;28;20264;-69
2021/03/05 08:11:38;;;;;;;22.20;12.57;;;;;;;;;;4998823;28;20731;-69
2021/03/05 08:14:26;;;;;;;21.53;12.87;;;;;;;;;;4998806;28;20253;-69
2021/03/05 08:16:53;;;;;;;18.70;12.27;;;;;;;;;;4991237;28;20633;-67
2021/03/05 08:19:41;;;;;;;18.43;12.70;;;;;;;;;;4997874;28;20211;-67
2021/03/05 08:22:08;;;;;;;15.00;11.43;;;;;;;;;;4990775;28;20338;-67
2021/03/05 08:24:39;;;;;;;19.70;12.23;;;;;;;;;;4997153;28;20233;-67
2021/03/05 08:27:07;;;;;;;19.70;13.03;;;;;;;;;;4998079;28;20296;-67
2021/03/05 08:29:53;;;;;;;18.43;11.57;;;;;;;;;;4994390;28;20288;-68
2021/03/05 08:32:40;;;;;;;21.60;12.63;;;;;;;;;;4993208;28;20243;-70
2021/03/05 08:35:09;;;;;;;21.07;12.93;;;;;;;;;;4987432;28;20233;-70
2021/03/05 08:37:37;;;;;;;19.33;12.20;;;;;;;;;;4990835;28;20267;-69
2021/03/05 08:40:24;;;;;;;22.43;12.40;;;;;;;;;;4996675;28;20847;-69
2021/03/05 08:42:52;;;;;;;17.73;12.70;;;;;;;;;;4985540;28;20209;-70
2021/03/05 08:45:20;;;;;;;19.00;12.87;;;;;;;;;;4995886;28;20233;-70
2021/03/05 08:47:48;;;;;;;20.90;13.00;;;;;;;;;;4997524;28;20228;-69
2021/03/05 08:50:17;;;;;;;20.77;13.10;;;;;;;;;;4996246;28;20624;-70
2021/03/05 08:52:45;;;;;;;21.53;13.10;;;;;;;;;;4996536;28;20240;-70
2021/03/05 08:55:13;;;;;;;26.63;14.00;;;;;;;;;;4997487;28;20312;-69
2021/03/05 08:57:41;;;;;;;18.63;13.33;;;;;;;;;;4995971;28;20279;-70
2021/03/05 09:00:09;;;;;;;20.67;13.53;;;;;;;;;;4998458;28;20272;-72
2021/03/05 09:02:36;;;;;;;24.77;13.83;;;;;;;;;;4997228;28;20288;-73
2021/03/05 09:05:04;;;;;;;19.37;13.13;;;;;;;;;;4995487;28;20231;-70
2021/03/05 09:07:32;;;;;;;23.47;13.03;;;;;;;;;;4995318;28;20209;-71
2021/03/05 09:09:59;;;;;;;22.17;12.97;;;;;;;;;;4996280;28;20237;-71
2021/03/05 09:12:27;;;;;;;27.63;14.37;;;;;;;;;;4986867;28;20665;-69
2021/03/05 09:15:02;;;;;;;23.10;13.13;;;;;;;;;;4996154;28;20635;-70
2021/03/05 09:17:30;;;;;;;19.63;12.47;;;;;;;;;;4993058;28;20491;-70
2021/03/05 09:19:58;;;;;;;18.20;12.87;;;;;;;;;;4994193;28;20236;-70
2021/03/05 09:22:26;;;;;;;19.20;13.60;;;;;;;;;;4996737;28;20209;-70
2021/03/05 09:24:57;;;;;;;17.57;12.10;;;;;;;;;;4988778;28;20233;-69
2021/03/05 09:27:26;;;;;;;21.77;13.10;;;;;;;;;;4978100;28;20271;-69
2021/03/05 09:29:53;;;;;;;17.80;13.20;;;;;;;;;;4995312;28;20640;-69
2021/03/05 09:32:21;;;;;;;19.60;13.13;;;;;;;;;;4993019;28;20244;-68
2021/03/05 09:34:52;;;;;;;18.67;13.33;;;;;;;;;;4996034;28;20249;-69
2021/03/05 09:37:20;;;;;;;21.97;14.17;;;;;;;;;;4984048;28;20256;-69
2021/03/05 09:39:48;;;;;;;20.77;14.03;;;;;;;;;;4997539;28;20244;-69
2021/03/05 09:42:16;;;;;;;21.50;13.73;;;;;;;;;;4995650;28;20212;-69
2021/03/05 09:44:47;;;;;;;18.47;12.93;;;;;;;;;;4997126;28;20307;-69
2021/03/05 09:47:14;;;;;;;22.23;13.37;;;;;;;;;;4997175;28;20241;-69
2021/03/05 09:49:41;;;;;;;19.47;13.27;;;;;;;;;;4997280;28;20213;-69
2021/03/05 09:52:23;;;;;;;20.20;12.93;;;;;;;;;;4994837;28;20205;-67
2021/03/05 09:54:51;;;;;;;22.80;13.50;;;;;;;;;;4998707;28;20225;-70
2021/03/05 09:57:22;;;;;;;25.83;14.40;;;;;;;;;;4999115;28;20259;-69
2021/03/05 09:59:49;;;;;;;20.17;14.77;;;;;;;;;;5000303;28;20280;-68
2021/03/05 10:02:17;;;;;;;18.93;13.40;;;;;;;;;;4999638;28;20243;-70
2021/03/05 10:04:45;;;;;;;22.77;14.53;;;;;;;;;;4999568;28;20627;-70
2021/03/05 10:07:12;;;;;;;23.87;15.30;;;;;;;;;;4998777;28;20280;-69
2021/03/05 10:09:39;;;;;;;22.77;14.33;;;;;;;;;;4999655;28;20312;-70
2021/03/05 10:12:06;;;;;;;23.03;13.83;;;;;;;;;;4999194;28;20620;-70
2021/03/05 10:14:36;;;;;;;19.23;13.70;;;;;;;;;;4999823;28;20569;-71
2021/03/05 10:17:10;;;;;;;26.33;15.17;;;;;;;;;;4998796;28;20308;-70
2021/03/05 10:19:38;;;;;;;22.83;15.07;;;;;;;;;;4998216;28;20212;-70
2021/03/05 10:22:06;;;;;;;22.67;15.30;;;;;;;;;;4999799;28;20244;-70
2021/03/05 10:24:33;;;;;;;22.50;15.40;;;;;;;;;;5000883;28;20683;-71
2021/03/05 10:27:10;;;;;;;24.07;15.60;;;;;;;;;;4998593;28;20208;-70
2021/03/05 10:29:42;;;;;;;21.60;14.87;;;;;;;;;;4998530;28;20300;-70
2021/03/05 10:32:17;;;;;;;23.10;14.70;;;;;;;;;;4995206;28;20215;-66
2021/03/05 10:34:45;;;;;;;20.50;14.67;;;;;;;;;;4998464;28;20220;-70
2021/03/05 10:37:12;;;;;;;24.37;14.93;;;;;;;;;;4997807;28;20256;-70
2021/03/05 10:39:39;;;;;;;25.27;15.80;;;;;;;;;;4999844;28;20200;-71
2021/03/05 10:42:09;;;;;;;21.03;14.07;;;;;;;;;;4999796;28;20315;-71
2021/03/05 10:44:36;;;;;;;27.83;16.03;;;;;;;;;;4995796;28;20256;-71
2021/03/05 10:47:05;;;;;;;29.50;15.63;;;;;;;;;;4999724;28;20236;-71
2021/03/05 10:49:33;;;;;;;22.00;14.80;;;;;;;;;;4998335;28;20637;-71
2021/03/05 10:52:00;;;;;;;25.70;15.97;;;;;;;;;;4999041;28;20692;-70
2021/03/05 10:54:27;;;;;;;21.43;13.70;;;;;;;;;;4999720;28;20271;-71
2021/03/05 10:56:54;;;;;;;25.23;15.10;;;;;;;;;;4998895;28;20303;-70
2021/03/05 10:59:21;;;;;;;23.17;14.33;;;;;;;;;;4998258;28;20205;-71
2021/03/05 11:01:52;;;;;;;23.07;14.63;;;;;;;;;;4999241;28;20205;-70
2021/03/05 11:04:22;;;;;;;22.07;15.30;;;;;;;;;;4998848;28;20226;-71
2021/03/05 11:06:49;;;;;;;23.67;14.83;;;;;;;;;;4996922;28;20685;-72
2021/03/05 11:09:16;;;;;;;23.37;14.93;;;;;;;;;;4998619;28;20299;-70
2021/03/05 11:11:44;;;;;;;25.00;15.47;;;;;;;;;;4999492;28;20201;-71
2021/03/05 11:14:11;;;;;;;25.10;15.73;;;;;;;;;;4994773;28;20574;-70
2021/03/05 11:16:38;;;;;;;24.67;15.53;;;;;;;;;;4999189;28;20201;-72
2021/03/05 11:19:06;;;;;;;24.43;16.00;;;;;;;;;;4998410;28;20197;-74
2021/03/05 11:21:34;;;;;;;21.27;14.73;;;;;;;;;;4996864;28;20209;-73
2021/03/05 11:24:01;;;;;;;26.23;15.90;;;;;;;;;;4999535;28;20587;-73
2021/03/05 11:26:29;;;;;;;23.47;15.77;;;;;;;;;;4997861;28;20205;-73
2021/03/05 11:28:56;;;;;;;26.90;16.00;;;;;;;;;;4998357;28;20255;-74
2021/03/05 11:31:23;;;;;;;23.83;15.57;;;;;;;;;;4999494;28;20259;-73
2021/03/05 11:33:51;;;;;;;32.33;17.50;;;;;;;;;;4998626;28;20208;-73
2021/03/05 11:36:19;;;;;;;29.43;16.90;;;;;;;;;;4993795;28;20248;-73
2021/03/05 11:38:48;;;;;;;28.93;18.47;;;;;;;;;;4992504;28;20229;-72
2021/03/05 11:41:16;;;;;;;24.60;16.07;;;;;;;;;;4997678;28;20212;-73
2021/03/05 11:43:43;;;;;;;29.03;16.10;;;;;;;;;;4999074;28;20205;-73
2021/03/05 11:46:10;;;;;;;22.17;15.20;;;;;;;;;;4999163;28;20308;-73
2021/03/05 11:48:37;;;;;;;26.03;17.03;;;;;;;;;;4999413;28;20216;-73
2021/03/05 11:51:05;;;;;;;34.67;18.40;;;;;;;;;;4999000;28;20332;-73
2021/03/05 11:53:32;;;;;;;25.90;17.37;;;;;;;;;;4999334;28;20208;-73
2021/03/05 11:56:00;;;;;;;29.47;17.57;;;;;;;;;;4999025;28;20264;-73
2021/03/05 11:58:27;;;;;;;26.70;16.67;;;;;;;;;;4998448;28;20300;-73
2021/03/05 12:00:54;;;;;;;25.67;17.23;;;;;;;;;;4998692;28;20341;-73
2021/03/05 12:03:21;;;;;;;22.60;15.37;;;;;;;;;;4999113;28;20209;-73
2021/03/05 12:05:48;;;;;;;28.60;18.23;;;;;;;;;;4998692;28;20225;-74
2021/03/05 12:08:15;;;;;;;25.70;16.77;;;;;;;;;;4997960;28;20673;-74
2021/03/05 12:10:42;;;;;;;29.20;16.30;;;;;;;;;;4998319;28;20626;-73
2021/03/05 12:13:11;;;;;;;26.33;17.67;;;;;;;;;;4997653;28;20288;-73
2021/03/05 12:15:38;;;;;;;29.13;18.13;;;;;;;;;;4997382;28;20243;-75
2021/03/05 12:18:07;;;;;;;30.33;18.10;;;;;;;;;;4998111;28;20232;-75
2021/03/05 12:20:35;;;;;;;29.27;17.20;;;;;;;;;;4998446;28;20220;-75
2021/03/05 12:23:02;;;;;;;25.83;17.73;;;;;;;;;;4998491;28;20208;-75
2021/03/05 12:25:30;;;;;;;33.17;18.23;;;;;;;;;;4998311;28;20707;-76
2021/03/05 12:27:57;;;;;;;33.87;18.33;;;;;;;;;;4998444;28;20239;-75
2021/03/05 12:30:26;;;;;;;28.63;17.43;;;;;;;;;;4990575;28;20612;-75
2021/03/05 12:32:54;;;;;;;27.73;15.37;;;;;;;;;;4998332;28;20204;-75
2021/03/05 12:35:22;;;;;;;25.23;15.27;;;;;;;;;;4998208;28;20595;-75
2021/03/05 12:37:51;;;;;;;26.63;15.60;;;;;;;;;;4998259;28;20315;-75
2021/03/05 12:40:18;;;;;;;27.43;15.53;;;;;;;;;;4998230;28;20334;-75
2021/03/05 12:42:45;;;;;;;29.13;16.23;;;;;;;;;;4997998;28;20319;-75
2021/03/05 12:45:13;;;;;;;26.73;16.03;;;;;;;;;;4998393;28;20350;-74
2021/03/05 12:47:41;;;;;;;24.77;14.83;;;;;;;;;;4998010;28;20719;-74
2021/03/05 12:50:08;;;;;;;26.93;15.80;;;;;;;;;;4998355;28;20263;-75
2021/03/05 12:52:35;;;;;;;26.27;15.73;;;;;;;;;;4998293;28;20247;-75
2021/03/05 12:55:03;;;;;;;29.37;16.77;;;;;;;;;;4998103;28;20236;-75
2021/03/05 12:57:30;;;;;;;28.57;16.33;;;;;;;;;;5001158;28;20299;-75
2021/03/05 12:59:57;;;;;;;29.20;16.60;;;;;;;;;;4997831;28;20728;-75
2021/03/05 13:02:27;;;;;;;27.37;16.87;;;;;;;;;;4997805;28;20217;-75
2021/03/05 13:04:56;;;;;;;27.97;16.17;;;;;;;;;;4997883;28;20570;-75
2021/03/05 13:07:23;;;;;;;32.37;17.70;;;;;;;;;;4998138;28;20239;-75
2021/03/05 13:09:50;;;;;;;31.03;17.70;;;;;;;;;;4997908;28;20328;-75
2021/03/05 13:12:17;;;;;;;29.40;16.90;;;;;;;;;;4997619;28;20205;-75
2021/03/05 13:14:44;;;;;;;30.07;16.90;;;;;;;;;;4997488;28;20260;-75
2021/03/05 13:17:12;;;;;;;29.33;16.83;;;;;;;;;;4997769;28;20696;-75
2021/03/05 13:19:39;;;;;;;29.30;16.40;;;;;;;;;;4998072;28;20200;-75
2021/03/05 13:22:07;;;;;;;32.27;17.60;;;;;;;;;;4997757;28;20247;-76
2021/03/05 13:24:34;;;;;;;29.37;17.17;;;;;;;;;;4997934;28;20243;-75
2021/03/05 13:27:01;;;;;;;31.37;16.83;;;;;;;;;;4997739;28;20251;-75
2021/03/05 13:29:28;;;;;;;32.37;16.93;;;;;;;;;;4998332;28;20311;-75
2021/03/05 13:31:55;;;;;;;30.53;18.10;;;;;;;;;;5001828;28;20208;-75
2021/03/05 13:34:22;;;;;;;34.40;18.60;;;;;;;;;;5001565;28;20775;-75
2021/03/05 13:36:50;;;;;;;31.23;18.07;;;;;;;;;;5001429;28;20743;-75
2021/03/05 13:39:21;;;;;;;31.97;16.80;;;;;;;;;;5001784;28;20296;-75
2021/03/05 13:41:48;;;;;;;29.73;16.67;;;;;;;;;;5001628;28;20209;-75
2021/03/05 13:44:15;;;;;;;31.50;18.40;;;;;;;;;;5001465;28;20292;-75
2021/03/05 13:46:42;;;;;;;29.73;17.67;;;;;;;;;;5001375;28;20595;-75
2021/03/05 13:49:10;;;;;;;31.23;17.23;;;;;;;;;;5001461;28;20216;-75
2021/03/05 13:51:37;;;;;;;32.53;17.93;;;;;;;;;;5001300;28;20295;-75
2021/03/05 13:54:06;;;;;;;32.00;17.53;;;;;;;;;;5000912;28;20356;-75
2021/03/05 13:56:34;;;;;;;29.43;15.87;;;;;;;;;;5000997;28;20669;-75
2021/03/05 13:59:02;;;;;;;31.37;15.87;;;;;;;;;;5000915;28;20589;-75
2021/03/05 14:01:29;;;;;;;30.23;16.23;;;;;;;;;;5001397;28;20292;-75
2021/03/05 14:03:56;;;;;;;29.57;16.03;;;;;;;;;;5000865;28;20665;-77
2021/03/05 14:06:23;;;;;;;29.30;16.50;;;;;;;;;;5001223;28;20279;-74
2021/03/05 14:08:50;;;;;;;29.33;16.30;;;;;;;;;;5000886;28;20665;-75
2021/03/05 14:11:17;;;;;;;30.20;16.33;;;;;;;;;;5000776;28;20208;-75
2021/03/05 14:13:45;;;;;;;33.13;17.07;;;;;;;;;;5000753;28;20236;-74
2021/03/05 14:16:15;;;;;;;27.37;16.00;;;;;;;;;;5000950;28;20229;-74
2021/03/05 14:18:44;;;;;;;28.50;16.13;;;;;;;;;;5001136;28;20228;-75
2021/03/05 14:21:11;;;;;;;29.80;16.23;;;;;;;;;;5001045;28;20247;-75
2021/03/05 14:23:38;;;;;;;32.23;16.33;;;;;;;;;;5000953;28;20244;-74
2021/03/05 14:26:05;;;;;;;30.00;16.23;;;;;;;;;;5000606;28;20236;-71
2021/03/05 14:28:32;;;;;;;29.90;16.33;;;;;;;;;;5000535;28;20673;-74